Time;durP1;ratioP1;P1;durP2;ratioP2;P2;SDS_P1;SDS_P2;PMS_P1;PMS_P2;Temp;Humidity;BMP_temperature;BMP_pressure;BME280_temperature;BME280_humidity;BME280_pressure;Samples;Min_cycle;Max_cycle;Signal;HPM_P1;HPM_P2
2023/01/12 06:01:28;;;;;;;11.75;1.48;;;8.50;99.90;;;;;;5824724;23;20019;-70
2023/01/12 06:03:56;;;;;;;8.38;1.55;;;8.50;99.90;;;;;;4938730;29;20313;-72
2023/01/12 06:06:24;;;;;;;5.88;1.20;;;8.50;99.90;;;;;;4939400;29;20313;-72
2023/01/12 06:08:51;;;;;;;14.18;1.60;;;8.40;99.90;;;;;;4946828;29;20039;-71
2023/01/12 06:14:02;;;;;;;7.05;1.38;;;8.30;99.90;;;;;;4947117;29;20063;-73
2023/01/12 06:16:29;;;;;;;8.18;1.52;;;8.30;99.90;;;;;;4948973;29;20023;-72
2023/01/12 06:18:55;;;;;;;8.07;2.00;;;8.20;99.90;;;;;;4946384;29;20066;-71
2023/01/12 06:21:21;;;;;;;6.80;1.25;;;8.30;99.90;;;;;;4946009;29;20070;-72
2023/01/12 06:23:48;;;;;;;7.72;1.25;;;8.20;99.90;;;;;;4946638;29;20095;-70
2023/01/12 06:26:13;;;;;;;6.82;1.30;;;8.30;99.90;;;;;;4946518;29;20046;-70
2023/01/12 06:28:41;;;;;;;9.48;2.08;;;8.30;99.90;;;;;;4944382;29;20027;-72
2023/01/12 06:31:09;;;;;;;9.85;2.17;;;8.40;99.90;;;;;;4946021;29;20040;-72
2023/01/12 06:33:35;;;;;;;9.05;1.40;;;8.40;99.90;;;;;;4945636;29;20043;-73
2023/01/12 06:36:02;;;;;;;8.90;1.10;;;8.30;99.90;;;;;;4946446;29;20036;-72
2023/01/12 06:38:30;;;;;;;7.00;1.10;;;8.30;99.90;;;;;;4945245;29;20039;-73
2023/01/12 06:41:04;;;;;;;5.57;1.20;;;8.30;99.90;;;;;;4946056;29;20040;-80
2023/01/12 06:43:30;;;;;;;6.93;1.33;;;8.30;99.90;;;;;;4945372;29;20151;-74
2023/01/12 06:45:57;;;;;;;8.25;1.27;;;8.20;99.90;;;;;;4946226;29;20056;-74
2023/01/12 06:48:24;;;;;;;6.90;1.35;;;8.20;99.90;;;;;;4945297;29;20344;-74
2023/01/12 06:51:00;;;;;;;6.60;1.17;;;8.20;99.90;;;;;;4945987;29;20032;-73
2023/01/12 06:53:26;;;;;;;7.10;1.10;;;8.20;99.90;;;;;;4945472;29;20388;-73
2023/01/12 06:55:52;;;;;;;9.48;1.17;;;8.20;99.90;;;;;;4945779;29;20028;-72
2023/01/12 06:58:18;;;;;;;6.97;1.65;;;8.30;99.90;;;;;;4959994;29;20043;-73
2023/01/12 07:00:44;;;;;;;8.82;1.40;;;8.30;99.90;;;;;;4944624;29;20055;-74
2023/01/12 07:03:18;;;;;;;7.75;1.58;;;8.30;99.90;;;;;;4945249;29;20049;-74
2023/01/12 07:05:44;;;;;;;7.30;1.05;;;8.30;99.90;;;;;;4945977;29;20031;-73
2023/01/12 07:08:14;;;;;;;7.85;1.30;;;8.40;99.90;;;;;;4945511;29;20031;-72
2023/01/12 07:10:40;;;;;;;8.48;1.35;;;8.40;99.90;;;;;;4932096;29;20042;-73
2023/01/12 07:13:06;;;;;;;9.30;1.45;;;8.40;99.90;;;;;;4926812;29;20112;-72
2023/01/12 07:15:32;;;;;;;8.10;1.20;;;8.40;99.90;;;;;;4926019;29;20028;-71
2023/01/12 07:17:58;;;;;;;7.75;1.23;;;8.40;99.90;;;;;;4926334;29;20260;-72
2023/01/12 07:20:24;;;;;;;5.85;1.23;;;8.40;99.90;;;;;;4925972;29;20044;-72
2023/01/12 07:22:50;;;;;;;9.00;1.40;;;8.50;99.90;;;;;;4926475;29;20036;-72
2023/01/12 07:25:16;;;;;;;7.93;1.33;;;8.50;99.90;;;;;;4926106;29;20039;-71
2023/01/12 07:27:52;;;;;;;6.80;0.90;;;8.50;99.90;;;;;;4926273;29;20036;-74
2023/01/12 07:30:20;;;;;;;8.02;0.98;;;8.70;99.90;;;;;;4926427;29;20036;-74
2023/01/12 07:32:46;;;;;;;;;;;8.70;99.90;;;;;;4929823;29;20032;-71
2023/01/12 07:35:12;;;;;;;5.95;1.30;;;8.70;99.90;;;;;;4937715;29;20092;-73
2023/01/12 07:37:37;;;;;;;8.40;1.40;;;8.80;99.90;;;;;;4935354;29;20031;-71
2023/01/12 07:40:04;;;;;;;8.32;1.23;;;8.80;99.90;;;;;;4945052;29;20094;-73
2023/01/12 07:42:30;;;;;;;6.55;0.80;;;8.80;99.90;;;;;;4937845;29;20050;-73
2023/01/12 07:44:56;;;;;;;5.40;0.80;;;8.90;99.90;;;;;;4945165;29;20027;-75
2023/01/12 07:47:21;;;;;;;6.15;1.20;;;8.90;99.90;;;;;;4944376;29;20067;-73
2023/01/12 07:49:47;;;;;;;7.13;1.00;;;8.90;99.90;;;;;;4944530;29;20328;-74
2023/01/12 07:52:13;;;;;;;4.32;1.05;;;8.80;99.90;;;;;;4943733;29;20039;-71
2023/01/12 07:54:39;;;;;;;4.90;1.00;;;8.80;99.90;;;;;;4944435;29;20019;-71
2023/01/12 07:57:09;;;;;;;7.00;1.15;;;8.90;99.90;;;;;;4944690;29;20030;-74
2023/01/12 07:59:35;;;;;;;6.43;1.05;;;8.80;99.90;;;;;;4944167;29;20258;-73
2023/01/12 08:02:01;;;;;;;5.45;1.08;;;8.80;99.90;;;;;;4944232;29;20048;-72
2023/01/12 08:04:26;;;;;;;6.88;0.93;;;8.80;99.90;;;;;;4943431;29;20301;-72
2023/01/12 08:06:52;;;;;;;5.65;1.08;;;8.80;99.90;;;;;;4939490;29;20055;-73
2023/01/12 08:09:21;;;;;;;3.33;0.75;;;8.80;99.90;;;;;;4926851;29;20087;-73
2023/01/12 08:11:46;;;;;;;;;;;8.80;99.90;;;;;;4925113;29;20091;-72
2023/01/12 08:14:27;;;;;;;5.25;1.10;;;8.80;99.90;;;;;;4924797;29;20188;-75
2023/01/12 08:16:55;;;;;;;9.02;1.20;;;8.90;99.90;;;;;;4923822;29;20042;-72
2023/01/12 08:19:29;;;;;;;6.80;1.10;;;8.90;99.90;;;;;;4924900;29;20020;-75
2023/01/12 08:21:58;;;;;;;5.47;1.02;;;8.90;99.90;;;;;;4924570;29;20341;-71
2023/01/12 08:24:27;;;;;;;;;;;9.00;99.90;;;;;;4924841;29;20064;-71
2023/01/12 08:26:57;;;;;;;4.60;0.70;;;9.00;99.90;;;;;;4925097;29;19903;-70
2023/01/12 08:29:31;;;;;;;9.80;0.98;;;9.00;99.90;;;;;;4924748;29;20105;-71
2023/01/12 08:32:03;;;;;;;5.68;0.90;;;9.00;99.90;;;;;;4924932;29;20310;-72
2023/01/12 08:34:29;;;;;;;8.35;0.98;;;9.00;99.90;;;;;;4925426;29;20028;-72
2023/01/12 08:36:57;;;;;;;4.18;0.52;;;9.10;99.90;;;;;;4925654;29;20067;-75
2023/01/12 08:39:23;;;;;;;6.32;0.93;;;9.10;99.90;;;;;;4924776;29;20052;-72
2023/01/12 08:41:49;;;;;;;3.92;0.80;;;9.10;99.90;;;;;;4936429;29;20071;-72
2023/01/12 08:44:15;;;;;;;3.42;0.80;;;9.10;99.90;;;;;;4944338;29;20036;-72
2023/01/12 08:46:51;;;;;;;6.00;1.25;;;9.10;99.90;;;;;;4944098;29;20035;-72
2023/01/12 08:49:23;;;;;;;5.78;0.95;;;9.10;99.90;;;;;;4944087;29;20038;-72
2023/01/12 08:51:49;;;;;;;4.88;0.88;;;9.10;99.90;;;;;;4944489;29;20094;-73
2023/01/12 08:54:17;;;;;;;6.38;1.02;;;9.10;99.90;;;;;;4944123;29;20032;-71
2023/01/12 08:56:43;;;;;;;4.65;0.88;;;9.10;99.90;;;;;;4943808;29;20256;-70
2023/01/12 08:59:09;;;;;;;3.38;0.73;;;9.10;99.90;;;;;;4944362;29;20042;-73
2023/01/12 09:01:35;;;;;;;6.13;0.70;;;9.10;99.90;;;;;;4943297;29;20290;-72
2023/01/12 09:04:01;;;;;;;5.03;0.80;;;9.20;99.90;;;;;;4944255;29;20032;-69
2023/01/12 09:06:29;;;;;;;5.95;0.88;;;9.20;99.90;;;;;;4943702;29;20031;-73
2023/01/12 09:08:58;;;;;;;5.50;0.88;;;9.20;99.90;;;;;;4935645;29;20040;-72
2023/01/12 09:11:24;;;;;;;5.32;1.10;;;9.20;99.90;;;;;;4923305;29;20039;-72
2023/01/12 09:13:50;;;;;;;6.60;0.65;;;9.20;99.90;;;;;;4924292;29;20225;-72
2023/01/12 09:16:18;;;;;;;5.70;0.57;;;9.30;99.90;;;;;;4920621;29;20053;-70
2023/01/12 09:18:45;;;;;;;3.90;0.60;;;9.30;99.90;;;;;;4910575;29;20046;-70
2023/01/12 09:21:13;;;;;;;8.40;0.93;;;9.30;99.90;;;;;;4922711;29;20032;-73
2023/01/12 09:23:39;;;;;;;8.80;1.30;;;9.30;99.90;;;;;;4926400;29;20024;-71
2023/01/12 09:26:07;;;;;;;8.32;1.42;;;9.30;99.90;;;;;;4928865;29;20099;-71
2023/01/12 09:28:33;;;;;;;7.00;0.80;;;9.30;99.90;;;;;;4928023;29;20091;-73
2023/01/12 09:31:04;;;;;;;4.55;0.82;;;9.40;99.90;;;;;;4927376;29;20273;-70
2023/01/12 09:33:31;;;;;;;9.75;1.20;;;9.40;99.90;;;;;;4923929;29;20056;-70
2023/01/12 09:36:08;;;;;;;10.40;1.17;;;9.50;99.90;;;;;;4909734;29;20040;-71
2023/01/12 09:38:35;;;;;;;3.83;1.03;;;9.60;99.90;;;;;;4921403;29;20035;-71
2023/01/12 09:41:09;;;;;;;2.42;0.60;;;9.60;99.90;;;;;;4933185;29;20277;-70
2023/01/12 09:49:14;;;;;;;8.07;0.93;;;9.70;99.90;;;;;;4947010;29;20032;-71
2023/01/12 09:51:56;;;;;;;5.75;0.80;;;9.80;99.90;;;;;;4945050;29;20043;-71
2023/01/12 09:54:22;;;;;;;4.60;0.73;;;9.90;99.90;;;;;;4947249;29;20051;-73
2023/01/12 09:57:00;;;;;;;5.90;0.68;;;9.90;99.90;;;;;;4946258;29;20039;-71
2023/01/12 09:59:59;;;;;;;8.27;0.98;;;10.00;99.90;;;;;;4945571;29;20249;-72
2023/01/12 10:02:26;;;;;;;6.63;1.02;;;10.00;99.90;;;;;;4928034;29;20056;-75
2023/01/12 10:04:55;;;;;;;5.15;0.60;;;10.10;99.90;;;;;;4926767;29;20031;-73
2023/01/12 10:07:21;;;;;;;5.45;0.70;;;10.10;99.90;;;;;;4927281;29;20039;-72
2023/01/12 10:09:47;;;;;;;6.18;0.95;;;10.20;99.90;;;;;;4927038;29;20092;-71
2023/01/12 10:12:24;;;;;;;5.25;0.70;;;10.30;99.90;;;;;;4927603;29;20040;-71
2023/01/12 10:15:11;;;;;;;5.47;1.00;;;10.30;99.90;;;;;;4926943;29;20133;-76
2023/01/12 10:17:48;;;;;;;3.75;0.90;;;10.30;99.90;;;;;;4927099;29;20043;-72
2023/01/12 10:20:31;;;;;;;5.80;0.80;;;10.40;99.90;;;;;;4927619;29;20032;-72
2023/01/12 10:23:25;;;;;;;5.22;0.65;;;10.50;99.90;;;;;;4927567;29;20040;-72
2023/01/12 10:26:09;;;;;;;4.15;0.80;;;10.50;99.90;;;;;;4924789;29;20076;-72
2023/01/12 10:28:36;;;;;;;4.68;0.80;;;10.50;99.90;;;;;;4927052;29;20039;-75
2023/01/12 10:31:02;;;;;;;5.57;0.88;;;10.50;99.90;;;;;;4926895;29;20314;-71
2023/01/12 10:33:37;;;;;;;4.82;1.23;;;10.50;99.90;;;;;;4935715;29;20217;-70
2023/01/12 10:36:17;;;;;;;2.42;0.63;;;10.60;99.90;;;;;;4946028;29;20035;-73
2023/01/12 10:38:58;;;;;;;4.35;0.52;;;10.60;99.90;;;;;;4945518;29;20069;-72
2023/01/12 10:41:28;;;;;;;4.90;0.82;;;10.80;99.90;;;;;;4946252;29;20031;-71
2023/01/12 10:43:59;;;;;;;5.72;1.20;;;10.80;99.90;;;;;;4945732;29;20031;-72
2023/01/12 10:46:27;;;;;;;5.18;0.70;;;10.80;99.90;;;;;;4945927;29;20082;-73
2023/01/12 10:49:17;;;;;;;4.47;1.00;;;10.90;99.90;;;;;;4945293;29;20020;-72
2023/01/12 10:51:58;;;;;;;4.00;0.77;;;10.90;99.90;;;;;;4945083;29;20028;-71
2023/01/12 10:54:33;;;;;;;5.85;1.00;;;10.80;99.90;;;;;;4945718;29;20027;-71
2023/01/12 10:57:22;;;;;;;6.65;0.60;;;10.70;99.90;;;;;;4945554;29;20059;-71
2023/01/12 11:00:01;;;;;;;5.32;0.77;;;10.80;99.90;;;;;;4945352;29;20031;-71
2023/01/12 11:02:40;;;;;;;3.33;0.60;;;10.80;99.90;;;;;;4945654;29;20099;-70
2023/01/12 11:05:33;;;;;;;3.10;0.70;;;10.90;99.90;;;;;;4935387;29;20122;-75
2023/01/12 11:07:59;;;;;;;2.40;0.45;;;10.90;99.90;;;;;;4921984;29;20326;-70
2023/01/12 11:10:31;;;;;;;4.80;0.82;;;10.90;99.90;;;;;;4911067;29;20345;-72
2023/01/12 11:13:02;;;;;;;3.90;0.52;;;10.90;99.90;;;;;;4945315;29;20040;-75
2023/01/12 11:15:29;;;;;;;2.33;0.50;;;10.90;99.90;;;;;;4945761;29;20047;-68
2023/01/12 11:18:27;;;;;;;4.00;0.85;;;10.90;99.90;;;;;;4944071;29;20039;-71
2023/01/12 11:20:54;;;;;;;5.57;0.50;;;10.90;99.90;;;;;;4945003;29;20039;-74
2023/01/12 11:23:36;;;;;;;3.03;0.82;;;10.90;99.90;;;;;;4945547;29;20051;-71
2023/01/12 11:26:14;;;;;;;1.95;0.50;;;10.90;99.90;;;;;;4944137;29;20041;-72
2023/01/12 11:28:50;;;;;;;2.50;0.30;;;10.80;99.90;;;;;;4932949;29;20040;-73
2023/01/12 11:31:24;;;;;;;5.43;0.60;;;10.80;99.90;;;;;;4926208;29;20035;-73
2023/01/12 11:34:00;;;;;;;1.15;0.20;;;10.80;99.90;;;;;;4925801;29;20056;-74
2023/01/12 11:36:37;;;;;;;2.65;0.50;;;10.80;99.90;;;;;;4926234;29;20032;-74
2023/01/12 11:39:12;;;;;;;3.22;0.40;;;10.80;99.90;;;;;;4926226;29;20111;-72
2023/01/12 11:43:47;;;;;;;4.30;0.68;;;10.90;99.90;;;;;;4925585;29;20052;-73
2023/01/12 11:44:38;;;;;;;3.38;0.40;;;10.90;99.90;;;;;;4925823;29;20318;-72
2023/01/12 11:47:09;;;;;;;2.65;0.50;;;11.00;99.90;;;;;;4925311;29;20035;-72
2023/01/12 11:50:01;;;;;;;2.55;0.30;;;11.00;99.90;;;;;;4925676;29;20024;-71
2023/01/12 11:52:27;;;;;;;3.00;0.40;;;11.10;99.90;;;;;;4924801;29;20024;-72
2023/01/12 11:54:54;;;;;;;3.35;0.30;;;11.20;99.90;;;;;;4925800;29;20095;-71
2023/01/12 11:57:37;;;;;;;2.38;0.70;;;11.60;99.90;;;;;;4925793;29;20079;-74
2023/01/12 12:00:21;;;;;;;1.80;0.28;;;11.80;99.90;;;;;;4924183;29;20121;-72
2023/01/12 12:03:10;;;;;;;1.80;0.40;;;11.90;99.90;;;;;;4923992;29;20044;-73
2023/01/12 12:05:48;;;;;;;2.45;0.40;;;11.60;99.90;;;;;;4915246;29;20202;-74
2023/01/12 12:08:20;;;;;;;3.92;0.40;;;11.50;99.90;;;;;;4907027;29;20070;-71
2023/01/12 12:10:48;;;;;;;2.20;0.55;;;11.40;99.90;;;;;;4914731;29;20332;-72
2023/01/12 12:13:45;;;;;;;2.58;0.43;;;11.30;99.90;;;;;;4944577;29;20024;-72
2023/01/12 12:16:15;;;;;;;3.03;0.35;;;11.20;99.90;;;;;;4941602;29;20042;-71
2023/01/12 12:19:11;;;;;;;4.90;0.55;;;11.00;99.90;;;;;;4944231;29;20044;-70
2023/01/12 12:21:48;;;;;;;2.55;0.43;;;11.00;99.90;;;;;;4943908;29;20035;-72
2023/01/12 12:24:41;;;;;;;1.88;0.40;;;11.30;99.90;;;;;;4944495;29;20434;-72
2023/01/12 12:27:10;;;;;;;2.35;0.38;;;11.40;99.90;;;;;;4944679;29;20032;-71
2023/01/12 12:29:47;;;;;;;3.65;0.45;;;11.40;99.90;;;;;;4943767;29;20222;-69
2023/01/12 12:32:25;;;;;;;2.77;0.40;;;11.40;99.90;;;;;;4943436;29;20071;-71
2023/01/12 12:35:00;;;;;;;2.30;0.50;;;11.40;99.90;;;;;;4905966;29;20433;-72
2023/01/12 12:37:50;;;;;;;1.20;0.30;;;11.30;99.90;;;;;;4906597;29;20020;-73
2023/01/12 12:45:15;;;;;;;5.28;0.50;;;11.20;99.90;;;;;;4906673;29;20088;-72
2023/01/12 12:46:33;;;;;;;2.58;0.50;;;11.20;99.90;;;;;;4911049;29;20039;-70
2023/01/12 12:49:09;;;;;;;3.42;0.40;;;11.20;99.90;;;;;;4932758;29;20036;-72
2023/01/12 12:51:37;;;;;;;2.00;0.30;;;11.20;99.90;;;;;;4925276;29;20326;-71
2023/01/12 12:54:08;;;;;;;1.70;0.65;;;11.30;99.90;;;;;;4925151;29;20032;-70
2023/01/12 12:56:36;;;;;;;2.20;0.40;;;11.20;99.90;;;;;;4944164;29;20040;-71
2023/01/12 12:59:02;;;;;;;2.70;0.40;;;11.30;99.90;;;;;;4946743;29;20040;-71
2023/01/12 13:01:27;;;;;;;1.45;0.30;;;11.30;99.90;;;;;;4947391;29;20041;-71
2023/01/12 13:03:57;;;;;;;3.60;0.30;;;11.30;99.90;;;;;;4938883;29;20314;-73
2023/01/12 13:06:30;;;;;;;1.95;0.45;;;11.30;99.90;;;;;;4929038;29;20032;-71
2023/01/12 13:09:09;;;;;;;0.90;0.20;;;11.30;99.90;;;;;;4927056;29;20287;-72
2023/01/12 13:12:04;;;;;;;2.42;0.50;;;11.50;99.90;;;;;;4939809;29;20038;-72
2023/01/12 13:14:35;;;;;;;6.43;0.60;;;11.60;99.90;;;;;;4935014;29;20071;-72
2023/01/12 13:17:18;;;;;;;2.50;0.38;;;11.40;99.90;;;;;;4947070;29;20106;-71
2023/01/12 13:19:46;;;;;;;1.63;0.50;;;11.40;99.90;;;;;;4947361;29;20050;-72
2023/01/12 13:22:31;;;;;;;5.47;0.40;;;11.30;99.90;;;;;;4928668;29;20272;-69
2023/01/12 13:25:02;;;;;;;2.08;0.30;;;11.30;99.90;;;;;;4927952;29;20317;-70
2023/01/12 13:27:58;;;;;;;2.97;1.38;;;11.30;99.90;;;;;;4928545;29;20036;-71
2023/01/12 13:30:27;;;;;;;1.35;0.30;;;11.30;99.90;;;;;;4928673;29;20039;-71
2023/01/12 13:33:14;;;;;;;3.22;0.30;;;11.30;99.90;;;;;;4927796;29;20036;-72
2023/01/12 13:35:43;;;;;;;1.73;0.32;;;11.30;99.90;;;;;;4927892;29;20027;-70
2023/01/12 13:38:27;;;;;;;;;;;11.20;99.90;;;;;;4928382;29;20044;-70
2023/01/12 13:41:10;;;;;;;2.28;0.82;;;11.20;99.90;;;;;;4927756;29;19907;-70
2023/01/12 13:43:53;;;;;;;2.47;0.50;;;11.30;99.90;;;;;;4928204;29;20040;-69
2023/01/12 13:46:33;;;;;;;1.95;0.30;;;11.20;99.90;;;;;;4928306;29;20032;-69
2023/01/12 13:49:00;;;;;;;2.05;0.40;;;11.10;99.90;;;;;;4927601;29;20051;-69
2023/01/12 13:51:45;;;;;;;1.55;0.30;;;11.00;99.90;;;;;;4927846;29;20039;-71
2023/01/12 13:54:14;;;;;;;4.20;0.32;;;11.00;99.90;;;;;;4929506;29;20036;-70
2023/01/12 13:56:40;;;;;;;2.95;0.20;;;11.00;99.90;;;;;;4946113;29;20027;-72
2023/01/12 13:59:15;;;;;;;2.08;0.50;;;11.00;99.90;;;;;;4946692;29;20319;-71
2023/01/12 14:01:44;;;;;;;0.93;0.30;;;10.90;99.90;;;;;;4946237;29;20066;-68
2023/01/12 14:04:16;;;;;;;2.05;0.30;;;10.90;99.90;;;;;;4946835;29;20253;-70
2023/01/12 14:07:12;;;;;;;3.00;0.75;;;10.90;99.90;;;;;;4927690;29;20044;-69
2023/01/12 14:10:05;;;;;;;3.17;0.50;;;10.90;99.90;;;;;;4926617;29;20024;-70
2023/01/12 14:12:55;;;;;;;2.38;0.60;;;11.00;99.90;;;;;;4927630;29;20036;-72
2023/01/12 14:18:23;;;;;;;2.08;0.45;;;10.90;99.90;;;;;;4927543;29;20175;-72
2023/01/12 14:20:50;;;;;;;;;;;10.90;99.90;;;;;;4927425;29;20036;-73
2023/01/12 14:23:20;;;;;;;3.38;0.50;;;10.80;99.90;;;;;;4927559;29;19907;-73
2023/01/12 14:26:13;;;;;;;2.65;0.68;;;10.80;99.90;;;;;;4926857;29;20364;-75
2023/01/12 14:28:50;;;;;;;1.80;0.30;;;10.80;99.90;;;;;;4926050;29;20043;-74
2023/01/12 14:31:55;;;;;;;3.10;0.50;;;10.80;99.90;;;;;;4927420;29;20320;-73
2023/01/12 14:34:35;;;;;;;3.78;0.45;;;10.80;99.90;;;;;;4941198;29;20039;-73
2023/01/12 14:37:19;;;;;;;2.30;0.38;;;10.80;99.90;;;;;;4928951;29;20042;-73
2023/01/12 14:39:45;;;;;;;1.23;0.20;;;10.80;99.90;;;;;;4926653;29;20055;-75
2023/01/12 14:48:26;;;;;;;4.60;0.30;;;10.70;99.90;;;;;;4926821;29;20055;-74
2023/01/12 14:51:33;;;;;;;1.33;0.40;;;10.70;99.90;;;;;;4926379;29;20067;-74
2023/01/12 14:54:15;;;;;;;4.07;0.65;;;10.60;99.90;;;;;;4918829;29;20115;-72
2023/01/12 14:56:51;;;;;;;3.60;0.80;;;10.60;99.90;;;;;;4926010;29;20032;-74
2023/01/12 14:59:22;;;;;;;2.03;0.40;;;10.60;99.90;;;;;;4926744;29;20226;-73
2023/01/12 15:01:50;;;;;;;1.23;0.40;;;10.60;99.90;;;;;;4925534;29;20386;-74
2023/01/12 15:04:22;;;;;;;8.70;4.47;;;10.60;99.90;;;;;;4926455;29;20290;-74
2023/01/12 15:07:01;;;;;;;1.75;0.40;;;10.60;99.90;;;;;;4907443;29;20036;-72
2023/01/12 15:09:32;;;;;;;3.00;0.35;;;10.60;99.90;;;;;;4908143;29;20227;-72
2023/01/12 15:11:58;;;;;;;1.98;0.38;;;10.60;99.90;;;;;;4906993;29;20377;-70
2023/01/12 15:14:26;;;;;;;2.53;0.45;;;10.50;99.90;;;;;;4907543;29;20095;-71
2023/01/12 15:27:57;;;;;;;1.50;0.38;;;10.50;99.90;;;;;;4926004;29;20047;-71
2023/01/12 15:30:23;;;;;;;1.35;0.35;;;10.50;99.90;;;;;;4926543;29;20024;-70
2023/01/12 15:32:48;;;;;;;2.83;0.73;;;10.50;99.90;;;;;;4925839;29;20067;-71
2023/01/12 15:35:22;;;;;;;1.90;0.40;;;10.40;99.90;;;;;;4926666;29;20107;-72
2023/01/12 15:37:50;;;;;;;2.63;0.43;;;10.50;99.90;;;;;;4926125;29;20040;-72
2023/01/12 15:40:17;;;;;;;2.85;0.40;;;10.50;99.90;;;;;;4926395;29;20251;-70
2023/01/12 15:42:43;;;;;;;1.67;0.30;;;10.40;99.90;;;;;;4926465;29;20290;-70
2023/01/12 15:45:33;;;;;;;4.20;0.50;;;10.40;99.90;;;;;;4926723;29;20036;-70
2023/01/12 15:48:00;;;;;;;3.42;0.60;;;10.40;99.90;;;;;;4926099;29;20224;-73
2023/01/12 15:50:26;;;;;;;1.92;0.50;;;10.30;99.90;;;;;;4925924;29;20234;-71
2023/01/12 15:52:51;;;;;;;2.92;0.47;;;10.30;99.90;;;;;;4925572;29;20083;-73
2023/01/12 15:55:20;;;;;;;2.47;0.30;;;10.30;99.90;;;;;;4936452;29;20020;-70
2023/01/12 15:57:50;;;;;;;;;;;10.20;99.90;;;;;;4945261;29;20064;-71
2023/01/12 16:00:19;;;;;;;1.73;0.22;;;10.30;99.90;;;;;;4944805;29;19907;-71
2023/01/12 16:02:49;;;;;;;1.45;0.35;;;10.30;99.90;;;;;;4944087;29;20245;-72
2023/01/12 16:05:20;;;;;;;2.83;0.40;;;10.20;99.90;;;;;;4938401;29;20079;-72
2023/01/12 16:07:46;;;;;;;2.85;0.65;;;10.20;99.90;;;;;;4925782;29;20067;-72
2023/01/12 16:10:13;;;;;;;3.83;0.40;;;10.20;99.90;;;;;;4926316;29;20028;-72
2023/01/12 16:12:40;;;;;;;2.30;0.43;;;10.30;99.90;;;;;;4925968;29;20036;-72
2023/01/12 16:15:07;;;;;;;2.55;0.30;;;10.20;99.90;;;;;;4924376;29;20213;-75
2023/01/12 16:17:34;;;;;;;2.38;0.40;;;10.20;99.90;;;;;;4925685;29;20031;-69
2023/01/12 16:20:00;;;;;;;1.90;0.32;;;10.20;99.90;;;;;;4925079;29;20137;-71
2023/01/12 16:22:26;;;;;;;5.03;1.15;;;10.20;99.90;;;;;;4937316;29;20023;-70
2023/01/12 16:24:54;;;;;;;3.40;0.70;;;10.20;99.90;;;;;;4944830;29;20166;-72
2023/01/12 16:27:22;;;;;;;2.30;0.40;;;10.20;99.90;;;;;;4944690;29;20042;-73
2023/01/12 16:29:49;;;;;;;2.85;0.50;;;10.20;99.90;;;;;;4944193;29;20028;-73
2023/01/12 16:32:15;;;;;;;3.53;0.30;;;10.20;99.90;;;;;;4946289;29;20035;-71
2023/01/12 16:34:40;;;;;;;3.47;0.70;;;10.20;99.90;;;;;;4925320;29;20387;-73
2023/01/12 16:37:13;;;;;;;2.53;0.63;;;10.20;99.90;;;;;;4910010;29;20036;-72
2023/01/12 16:39:39;;;;;;;2.88;0.60;;;10.10;99.90;;;;;;4910410;29;20174;-71
2023/01/12 16:42:05;;;;;;;1.60;0.35;;;10.10;99.90;;;;;;4909953;29;20055;-72
2023/01/12 16:44:36;;;;;;;2.10;0.50;;;10.10;99.90;;;;;;4910463;29;20299;-71
2023/01/12 16:47:06;;;;;;;3.05;0.60;;;10.20;99.90;;;;;;4909521;29;20028;-71
2023/01/12 16:49:36;;;;;;;2.38;0.45;;;10.10;99.90;;;;;;4910249;29;20060;-72
2023/01/12 16:52:03;;;;;;;3.88;0.50;;;10.20;99.90;;;;;;4909749;29;20032;-71
2023/01/12 16:54:28;;;;;;;3.58;0.50;;;10.10;99.90;;;;;;4917844;29;20019;-73
2023/01/12 16:56:54;;;;;;;4.47;0.80;;;10.20;99.90;;;;;;4947559;29;20314;-71
2023/01/12 16:59:20;;;;;;;3.00;0.50;;;10.20;99.90;;;;;;4934639;29;20055;-73
2023/01/12 17:01:46;;;;;;;3.70;0.65;;;10.20;99.90;;;;;;4928320;29;20054;-72
2023/01/12 17:04:12;;;;;;;4.00;0.60;;;10.20;99.90;;;;;;4927782;29;20027;-72
2023/01/12 17:06:41;;;;;;;2.50;0.50;;;10.20;99.90;;;;;;4928949;29;20044;-73
2023/01/12 17:09:07;;;;;;;3.35;0.55;;;10.20;99.90;;;;;;4928241;29;20183;-71
2023/01/12 17:11:34;;;;;;;2.20;0.40;;;10.20;99.90;;;;;;4928906;29;20095;-71
2023/01/12 17:14:21;;;;;;;4.07;0.70;;;10.20;99.90;;;;;;4928305;29;20131;-72
2023/01/12 17:16:47;;;;;;;2.40;0.50;;;10.20;99.90;;;;;;4928564;29;20036;-71
2023/01/12 17:19:14;;;;;;;3.17;0.60;;;10.20;99.90;;;;;;4928627;29;20024;-72
2023/01/12 17:21:40;;;;;;;2.55;0.30;;;10.20;99.90;;;;;;4928835;29;20032;-73
2023/01/12 17:24:07;;;;;;;2.78;0.70;;;10.20;99.90;;;;;;4927767;29;20131;-75
2023/01/12 17:26:32;;;;;;;1.65;0.45;;;10.20;99.90;;;;;;4927449;29;20329;-72
2023/01/12 17:28:58;;;;;;;1.80;0.65;;;10.20;99.90;;;;;;4927587;29;20039;-74
2023/01/12 17:31:24;;;;;;;2.95;0.50;;;10.20;99.90;;;;;;4928569;29;20020;-76
2023/01/12 17:33:50;;;;;;;6.68;0.60;;;10.20;99.90;;;;;;4927991;29;20039;-74
2023/01/12 17:36:16;;;;;;;5.25;1.42;;;10.10;99.90;;;;;;4928536;29;20032;-71
2023/01/12 17:38:42;;;;;;;3.95;0.70;;;10.10;99.90;;;;;;4928454;29;20032;-71
2023/01/12 17:43:59;;;;;;;2.83;0.50;;;10.20;99.90;;;;;;4926779;29;20036;-71
2023/01/12 17:46:25;;;;;;;2.55;0.40;;;10.20;99.90;;;;;;4928038;29;20036;-69
2023/01/12 17:48:50;;;;;;;3.70;0.57;;;10.20;99.90;;;;;;4927671;29;20187;-70
2023/01/12 17:51:16;;;;;;;2.15;0.60;;;10.20;99.90;;;;;;4928007;29;20039;-73
2023/01/12 17:53:43;;;;;;;2.42;0.50;;;10.20;99.90;;;;;;4927044;29;20134;-72
2023/01/12 17:56:09;;;;;;;2.83;0.38;;;10.20;99.90;;;;;;4944838;29;20031;-72
2023/01/12 17:58:35;;;;;;;2.28;0.57;;;10.20;99.90;;;;;;4947194;29;20032;-71
2023/01/12 18:01:09;;;;;;;4.80;0.43;;;10.20;99.90;;;;;;4946854;29;20023;-71
2023/01/12 18:03:35;;;;;;;5.47;0.90;;;10.10;99.90;;;;;;4946609;29;20047;-71
2023/01/12 18:06:01;;;;;;;3.05;0.60;;;10.20;99.90;;;;;;4933588;29;20040;-72
2023/01/12 18:08:27;;;;;;;3.20;0.65;;;10.20;99.90;;;;;;4927641;29;20095;-72
2023/01/12 18:10:53;;;;;;;2.90;0.68;;;10.20;99.90;;;;;;4927274;29;20039;-72
2023/01/12 18:13:19;;;;;;;3.67;0.75;;;10.20;99.90;;;;;;4927864;29;20210;-75
2023/01/12 18:15:45;;;;;;;4.18;0.50;;;10.20;99.90;;;;;;4927761;29;20381;-73
2023/01/12 18:18:10;;;;;;;2.40;0.50;;;10.30;99.90;;;;;;4927405;29;20067;-70
2023/01/12 18:20:36;;;;;;;1.52;0.38;;;10.30;99.90;;;;;;4927340;29;20092;-70
2023/01/12 18:23:02;;;;;;;2.22;0.50;;;10.30;99.90;;;;;;4926973;29;20028;-69
2023/01/12 18:25:27;;;;;;;3.88;0.50;;;10.30;99.90;;;;;;4926274;29;20032;-69
2023/01/12 18:27:53;;;;;;;3.17;0.47;;;10.30;99.90;;;;;;4927138;29;20059;-69
2023/01/12 18:30:19;;;;;;;1.42;0.40;;;10.30;99.90;;;;;;4929844;29;20035;-69
2023/01/12 18:32:45;;;;;;;2.03;0.50;;;10.30;99.90;;;;;;4942761;29;20035;-69
2023/01/12 18:35:14;;;;;;;2.17;0.70;;;10.40;99.90;;;;;;4927009;29;20095;-70
2023/01/12 18:37:39;;;;;;;1.98;0.65;;;10.40;99.90;;;;;;4927112;29;20095;-70
2023/01/12 18:40:06;;;;;;;2.10;0.50;;;10.40;99.90;;;;;;4926382;29;20226;-71
2023/01/12 18:42:50;;;;;;;1.92;0.40;;;10.40;99.90;;;;;;4927201;29;20051;-70
2023/01/12 18:45:19;;;;;;;4.57;0.60;;;10.40;99.90;;;;;;4926363;29;20091;-68
2023/01/12 18:53:24;;;;;;;2.25;0.50;;;10.40;99.90;;;;;;4926469;29;20032;-70
2023/01/12 18:55:57;;;;;;;2.25;0.40;;;10.40;99.90;;;;;;4940605;29;20101;-70
2023/01/12 18:58:28;;;;;;;2.05;0.45;;;10.40;99.90;;;;;;4946050;29;20067;-68
2023/01/12 19:00:56;;;;;;;1.80;0.47;;;10.50;99.90;;;;;;4945386;29;20023;-68
2023/01/12 19:03:22;;;;;;;0.73;0.22;;;10.50;99.90;;;;;;4946073;29;20062;-68
2023/01/12 19:06:15;;;;;;;1.83;0.35;;;10.50;99.90;;;;;;4934209;29;20051;-68
2023/01/12 19:11:43;;;;;;;3.30;0.45;;;10.50;99.90;;;;;;4906003;29;20044;-67
2023/01/12 19:19:38;;;;;;;2.35;0.70;;;10.60;99.90;;;;;;4926645;29;20322;-72
2023/01/12 19:30:24;;;;;;;2.05;0.40;;;10.60;99.90;;;;;;4926603;29;20148;-73
2023/01/12 19:32:51;;;;;;;1.83;0.50;;;10.60;99.90;;;;;;4926333;29;20032;-74
2023/01/12 19:35:17;;;;;;;1.98;0.50;;;10.60;99.90;;;;;;4925724;29;20353;-75
2023/01/12 19:37:47;;;;;;;4.32;0.45;;;10.70;99.90;;;;;;4916724;29;20036;-74
2023/01/12 19:40:42;;;;;;;3.05;0.50;;;10.60;99.90;;;;;;4925983;29;20047;-72
2023/01/12 19:43:11;;;;;;;3.22;0.47;;;10.60;99.90;;;;;;4925185;29;20294;-72
2023/01/12 19:45:48;;;;;;;2.10;0.40;;;10.60;99.90;;;;;;4920625;29;20188;-72
2023/01/12 19:48:16;;;;;;;2.53;0.43;;;10.60;99.90;;;;;;4925665;29;20043;-72
2023/01/12 19:50:43;;;;;;;2.50;0.30;;;10.60;99.90;;;;;;4925939;29;20250;-73
2023/01/12 19:53:17;;;;;;;1.10;0.30;;;10.60;99.90;;;;;;4925533;29;20119;-73
2023/01/12 19:55:43;;;;;;;3.17;0.60;;;10.60;99.90;;;;;;4939198;29;20032;-71
2023/01/12 19:58:09;;;;;;;1.67;0.40;;;10.60;99.90;;;;;;4943821;29;20099;-73
2023/01/12 20:00:43;;;;;;;4.03;0.70;;;10.60;99.90;;;;;;4944551;29;20039;-73
2023/01/12 20:03:14;;;;;;;1.38;0.35;;;10.60;99.90;;;;;;4944068;29;20110;-73
2023/01/12 20:05:41;;;;;;;3.50;0.52;;;10.70;99.90;;;;;;4930263;29;20143;-74
2023/01/12 20:08:07;;;;;;;3.97;0.57;;;10.70;99.90;;;;;;4924752;29;20035;-75
2023/01/12 20:10:34;;;;;;;1.55;0.32;;;10.70;99.90;;;;;;4925773;29;20082;-74